Time;durP1;ratioP1;P1;durP2;ratioP2;P2;SDS_P1;SDS_P2;PMS_P1;PMS_P2;Temp;Humidity;BMP_temperature;BMP_pressure;BME280_temperature;BME280_humidity;BME280_pressure;Samples;Min_cycle;Max_cycle;Signal;HPM_P1;HPM_P2
2021/05/22 00:01:22;;;;;;;3.20;1.80;;;;;;;11.78;71.84;95863.59;1732928;80;20939;-82
2021/05/22 00:03:48;;;;;;;3.25;1.65;;;;;;;11.73;71.85;95855.89;1710632;82;20919;-82
2021/05/22 00:06:14;;;;;;;2.47;1.35;;;;;;;11.72;71.92;95852.20;1745942;82;20997;-82
2021/05/22 00:08:40;;;;;;;2.22;1.52;;;;;;;11.72;72.07;95850.89;1726765;80;21018;-81
2021/05/22 00:11:06;;;;;;;2.83;1.52;;;;;;;11.70;72.11;95847.66;1743176;82;21061;-81
2021/05/22 00:13:32;;;;;;;2.62;1.27;;;;;;;11.65;72.29;95838.37;1732703;80;21343;-82
2021/05/22 00:15:57;;;;;;;2.85;1.60;;;;;;;11.58;72.30;95837.08;1753791;80;20958;-82
2021/05/22 00:18:23;;;;;;;3.98;1.40;;;;;;;11.52;72.41;95839.17;1751805;80;20946;-81
2021/05/22 00:20:49;;;;;;;3.55;1.32;;;;;;;11.46;72.45;95839.18;1721679;82;21295;-82
2021/05/22 00:23:15;;;;;;;3.50;1.30;;;;;;;11.44;72.56;95838.08;1725815;82;20990;-82
2021/05/22 00:25:41;;;;;;;2.22;1.22;;;;;;;11.43;72.46;95841.19;1727269;82;21010;-82
2021/05/22 00:28:07;;;;;;;2.30;1.30;;;;;;;11.44;72.34;95832.87;1725311;80;20993;-82
2021/05/22 00:30:33;;;;;;;3.02;1.20;;;;;;;11.42;72.28;95829.18;1726171;82;21017;-81
2021/05/22 00:32:58;;;;;;;1.90;1.00;;;;;;;11.40;72.60;95818.17;1725129;80;21465;-82
2021/05/22 00:35:24;;;;;;;3.35;1.60;;;;;;;11.31;72.79;95810.26;1725146;80;21049;-81
2021/05/22 00:37:50;;;;;;;2.52;1.17;;;;;;;11.20;72.89;95800.44;1726997;82;21041;-82
2021/05/22 00:40:16;;;;;;;2.22;1.37;;;;;;;11.12;72.98;95804.05;1725821;80;21103;-81
2021/05/22 00:42:43;;;;;;;1.85;1.35;;;;;;;11.07;73.09;95799.16;1725637;80;21002;-82
2021/05/22 00:45:18;;;;;;;3.42;1.30;;;;;;;11.04;73.27;95787.83;1726350;80;21010;-81
2021/05/22 00:47:47;;;;;;;2.17;1.50;;;;;;;11.00;73.26;95781.44;1725184;80;21271;-82
2021/05/22 00:50:26;;;;;;;2.98;1.45;;;;;;;10.98;73.19;95777.73;1725639;82;20974;-81
2021/05/22 00:52:53;;;;;;;1.87;1.30;;;;;;;10.98;73.08;95773.84;1725779;80;20963;-82
2021/05/22 00:55:19;;;;;;;3.00;1.50;;;;;;;10.96;73.12;95771.94;1725336;80;21311;-81
2021/05/22 00:57:45;;;;;;;2.72;1.35;;;;;;;10.95;73.38;95764.34;1725537;80;21359;-82
2021/05/22 01:00:14;;;;;;;2.95;1.20;;;;;;;10.90;73.25;95760.22;1736720;80;20954;-82
2021/05/22 01:02:40;;;;;;;2.60;1.47;;;;;;;10.90;73.33;95753.25;1734008;80;20974;-82
2021/05/22 01:05:06;;;;;;;2.77;1.30;;;;;;;10.90;73.22;95760.22;1754556;80;21654;-82
2021/05/22 01:07:32;;;;;;;4.15;1.65;;;;;;;10.93;73.08;95755.95;1754482;80;20994;-82
2021/05/22 01:09:58;;;;;;;3.30;1.47;;;;;;;10.93;73.19;95763.25;1729562;80;21072;-82
2021/05/22 01:12:33;;;;;;;2.00;1.20;;;;;;;10.90;73.28;95762.81;1737482;80;21018;-82
2021/05/22 01:15:12;;;;;;;2.35;1.20;;;;;;;10.82;73.29;95763.32;1750894;80;20966;-82
2021/05/22 01:17:40;;;;;;;1.62;1.07;;;;;;;10.79;73.47;95762.92;1725140;82;20974;-81
2021/05/22 01:20:32;;;;;;;2.75;1.30;;;;;;;10.81;73.74;95770.81;1725666;80;20986;-81
2021/05/22 01:23:03;;;;;;;3.15;1.40;;;;;;;10.81;73.69;95763.02;1725353;80;21004;-81
2021/05/22 01:25:35;;;;;;;2.60;0.98;;;;;;;10.83;73.79;95751.12;1700801;82;20993;-82
2021/05/22 01:28:03;;;;;;;2.50;1.30;;;;;;;10.86;73.58;95747.33;1725668;82;20954;-82
2021/05/22 01:30:29;;;;;;;2.25;1.20;;;;;;;10.85;73.48;95741.83;1726160;80;20970;-81
2021/05/22 01:32:55;;;;;;;4.20;1.40;;;;;;;10.85;73.69;95740.03;1727622;80;20982;-81
2021/05/22 01:35:21;;;;;;;1.32;1.07;;;;;;;10.83;73.58;95744.13;1725224;80;20971;-81
2021/05/22 01:37:47;;;;;;;1.45;0.98;;;;;;;10.81;73.76;95733.64;1725185;80;21318;-82
2021/05/22 01:40:13;;;;;;;2.05;0.98;;;;;;;10.77;73.61;95721.55;1726217;82;20998;-81
2021/05/22 01:42:39;;;;;;;1.87;1.10;;;;;;;10.76;73.71;95717.84;1725097;80;20954;-82
2021/05/22 01:45:10;;;;;;;2.65;0.95;;;;;;;10.75;73.58;95717.55;1725567;80;21279;-81
2021/05/22 01:47:35;;;;;;;1.77;1.10;;;;;;;10.79;73.73;95725.24;1733658;80;21368;-81
2021/05/22 01:50:03;;;;;;;1.77;1.40;;;;;;;10.80;73.65;95734.64;1737964;81;21021;-81
2021/05/22 01:52:33;;;;;;;1.22;1.00;;;;;;;10.82;73.83;95737.83;1702510;82;20978;-81
2021/05/22 01:54:58;;;;;;;1.50;1.20;;;;;;;10.78;73.66;95729.64;1740823;80;21113;-81
2021/05/22 01:57:25;;;;;;;3.60;0.90;;;;;;;10.79;73.96;95734.34;1726253;80;21018;-81
2021/05/22 01:59:50;;;;;;;4.65;0.90;;;;;;;10.76;73.94;95717.84;1731140;80;21026;-81
2021/05/22 02:02:20;;;;;;;4.12;1.00;;;;;;;10.78;74.04;95723.14;1740661;82;21009;-81
2021/05/22 02:04:46;;;;;;;2.00;1.30;;;;;;;10.80;74.13;95721.14;1746510;80;21335;-82
2021/05/22 02:07:18;;;;;;;1.57;0.93;;;;;;;10.80;74.14;95717.24;1725174;82;20947;-81
2021/05/22 02:09:47;;;;;;;2.12;0.98;;;;;;;10.83;74.05;95729.84;1725230;80;21343;-81
2021/05/22 02:12:13;;;;;;;2.42;1.15;;;;;;;10.84;73.94;95733.23;1734878;80;21021;-81
2021/05/22 02:14:38;;;;;;;1.60;1.10;;;;;;;10.83;73.89;95734.23;1754308;80;20950;-81
2021/05/22 02:17:07;;;;;;;2.30;0.98;;;;;;;10.82;73.93;95740.44;1727773;80;20950;-81
2021/05/22 02:19:33;;;;;;;1.12;0.90;;;;;;;10.83;73.97;95738.93;1711086;82;20950;-81
2021/05/22 02:22:05;;;;;;;2.02;0.78;;;;;;;10.86;73.92;95739.53;1733297;80;21251;-81
2021/05/22 02:24:31;;;;;;;2.02;1.10;;;;;;;10.85;73.89;95733.53;1745588;82;20944;-81
2021/05/22 02:26:58;;;;;;;2.42;1.20;;;;;;;10.85;73.77;95735.34;1725171;82;21267;-81
2021/05/22 02:29:24;;;;;;;1.00;0.80;;;;;;;10.78;73.76;95729.64;1748113;82;21049;-81
2021/05/22 02:31:50;;;;;;;2.70;1.00;;;;;;;10.75;73.69;95728.74;1743390;80;21352;-81
2021/05/22 02:34:19;;;;;;;2.37;1.00;;;;;;;10.71;73.71;95726.22;1725624;80;21075;-81
2021/05/22 02:36:45;;;;;;;2.65;0.98;;;;;;;10.71;73.72;95731.41;1726103;80;21050;-81
2021/05/22 02:39:10;;;;;;;1.47;1.00;;;;;;;10.72;73.74;95732.22;1675787;83;20907;-81
2021/05/22 02:41:37;;;;;;;1.77;0.98;;;;;;;10.71;73.66;95739.20;1727573;80;21023;-81
2021/05/22 02:44:04;;;;;;;1.22;0.93;;;;;;;10.71;73.57;95742.31;1743106;80;21046;-81
2021/05/22 02:46:34;;;;;;;1.75;1.40;;;;;;;10.67;73.65;95743.20;1742790;82;21037;-81
2021/05/22 02:48:59;;;;;;;2.30;1.15;;;;;;;10.61;73.71;95739.31;1727822;80;21229;-81
2021/05/22 02:51:25;;;;;;;1.10;0.88;;;;;;;10.58;73.78;95750.10;1725602;82;21010;-81
2021/05/22 02:53:51;;;;;;;1.10;0.80;;;;;;;10.56;73.67;95751.57;1727876;82;21038;-81
2021/05/22 02:56:17;;;;;;;2.17;1.10;;;;;;;10.52;73.72;95747.77;1726050;80;21311;-81
2021/05/22 02:58:44;;;;;;;2.17;1.22;;;;;;;10.51;73.70;95753.47;1727415;80;20926;-81
2021/05/22 03:01:10;;;;;;;1.92;1.20;;;;;;;10.49;73.64;95752.06;1746130;80;20974;-81
2021/05/22 03:03:36;;;;;;;1.25;1.02;;;;;;;10.48;73.69;95751.77;1734119;80;20930;-81
2021/05/22 03:06:04;;;;;;;2.05;1.00;;;;;;;10.49;73.82;95742.47;1737657;82;21017;-81
2021/05/22 03:08:30;;;;;;;1.90;1.10;;;;;;;10.51;74.11;95744.88;1725617;80;21262;-81
2021/05/22 03:10:56;;;;;;;1.47;1.10;;;;;;;10.52;74.21;95743.88;1740886;82;21038;-81
2021/05/22 03:13:21;;;;;;;1.35;1.07;;;;;;;10.53;74.26;95745.47;1732216;80;21005;-81
2021/05/22 03:15:47;;;;;;;1.98;0.98;;;;;;;10.56;74.37;95738.58;1753469;82;21283;-81
2021/05/22 03:18:13;;;;;;;3.17;1.15;;;;;;;10.58;74.25;95724.92;1732684;80;20994;-81
2021/05/22 03:20:39;;;;;;;2.62;1.10;;;;;;;10.63;74.13;95729.52;1748782;80;20954;-81
2021/05/22 03:23:05;;;;;;;2.25;1.35;;;;;;;10.65;74.41;95736.61;1725362;80;20927;-81
2021/05/22 03:25:31;;;;;;;1.30;1.20;;;;;;;10.63;74.38;95730.32;1746353;80;21287;-81
2021/05/22 03:27:57;;;;;;;2.27;1.05;;;;;;;10.61;74.51;95727.63;1725542;80;21052;-81
2021/05/22 03:30:23;;;;;;;1.30;1.00;;;;;;;10.60;74.70;95729.42;1725518;80;20981;-81
2021/05/22 03:32:49;;;;;;;1.30;0.60;;;;;;;10.62;74.71;95733.12;1725987;80;20970;-80
2021/05/22 03:35:15;;;;;;;4.50;1.30;;;;;;;10.65;74.73;95732.22;1725863;82;20942;-81
2021/05/22 03:37:41;;;;;;;2.58;1.62;;;;;;;10.70;74.46;95736.31;1725130;82;20942;-81
2021/05/22 03:40:08;;;;;;;1.75;1.22;;;;;;;10.75;75.14;95727.95;1742575;82;20937;-81
2021/05/22 03:42:34;;;;;;;1.70;1.12;;;;;;;10.76;74.88;95729.05;1718665;82;20978;-81
2021/05/22 03:45:00;;;;;;;3.37;1.32;;;;;;;10.80;74.77;95728.14;1717306;81;20923;-81
2021/05/22 03:47:26;;;;;;;2.25;1.10;;;;;;;10.81;74.54;95725.34;1719588;81;21133;-81
2021/05/22 03:49:52;;;;;;;2.92;1.50;;;;;;;10.83;74.97;95716.05;1724621;81;21244;-81
2021/05/22 03:52:18;;;;;;;3.10;1.10;;;;;;;10.85;74.97;95711.44;1714092;81;20995;-81
2021/05/22 03:54:45;;;;;;;1.87;1.20;;;;;;;10.89;75.04;95714.44;1740143;82;21058;-81
2021/05/22 03:57:11;;;;;;;2.55;1.10;;;;;;;10.94;74.81;95708.16;1721433;81;20959;-81
2021/05/22 03:59:37;;;;;;;2.52;1.20;;;;;;;10.99;74.77;95697.95;1715440;81;20962;-81
2021/05/22 04:02:02;;;;;;;2.08;1.07;;;;;;;11.04;74.72;95699.44;1727585;81;20951;-82
2021/05/22 04:04:28;;;;;;;1.45;1.00;;;;;;;11.08;74.75;95697.56;1731279;81;20983;-82
2021/05/22 04:06:54;;;;;;;1.72;1.07;;;;;;;11.13;74.88;95680.05;1719086;81;20987;-81
2021/05/22 04:09:20;;;;;;;3.15;1.30;;;;;;;11.15;74.99;95676.74;1724100;81;21327;-81
2021/05/22 04:11:45;;;;;;;1.75;1.10;;;;;;;11.20;74.93;95683.42;1736815;82;21002;-81
2021/05/22 04:14:11;;;;;;;2.33;0.90;;;;;;;11.28;74.96;95680.63;1727793;81;20943;-81
2021/05/22 04:16:37;;;;;;;1.75;1.10;;;;;;;11.37;75.24;95687.70;1714019;81;21276;-82
2021/05/22 04:19:03;;;;;;;2.37;1.10;;;;;;;11.45;75.37;95686.20;1711502;81;20938;-81
2021/05/22 04:21:29;;;;;;;2.25;1.22;;;;;;;11.50;75.25;95679.08;1712506;81;20927;-82
2021/05/22 04:23:55;;;;;;;2.37;1.30;;;;;;;11.54;75.19;95686.77;1732747;81;21272;-81
2021/05/22 04:26:21;;;;;;;2.52;1.20;;;;;;;11.58;75.13;95685.38;1711932;81;21046;-81
2021/05/22 04:28:46;;;;;;;1.42;1.05;;;;;;;11.59;75.22;95694.77;1712206;81;20947;-81
2021/05/22 04:31:12;;;;;;;2.15;1.12;;;;;;;11.65;75.31;95697.84;1731536;81;21265;-81
2021/05/22 04:33:38;;;;;;;1.20;1.00;;;;;;;11.75;75.39;95707.84;1712100;82;20934;-81
2021/05/22 04:36:05;;;;;;;1.72;1.10;;;;;;;11.85;75.35;95701.21;1711576;81;20955;-81
2021/05/22 04:38:30;;;;;;;1.60;1.00;;;;;;;11.96;74.79;95696.67;1711556;81;20942;-81
2021/05/22 04:40:56;;;;;;;2.30;1.12;;;;;;;12.04;75.39;95702.16;1712230;81;21351;-81
2021/05/22 04:43:22;;;;;;;2.95;1.40;;;;;;;12.14;75.65;95706.91;1713764;82;20967;-81
2021/05/22 04:45:48;;;;;;;2.47;1.12;;;;;;;12.24;74.61;95700.77;1713350;81;20963;-81
2021/05/22 04:48:14;;;;;;;1.77;0.93;;;;;;;12.27;75.39;95699.84;1724704;81;21002;-81
2021/05/22 04:50:40;;;;;;;2.60;1.20;;;;;;;12.32;75.30;95697.90;1718223;81;21378;-81
2021/05/22 04:53:05;;;;;;;2.52;1.07;;;;;;;12.39;75.03;95710.91;1720628;82;21018;-81
2021/05/22 04:55:32;;;;;;;4.42;1.07;;;;;;;12.47;74.87;95714.55;1724342;81;21121;-81
2021/05/22 04:57:57;;;;;;;2.85;1.27;;;;;;;12.44;74.50;95723.59;1736211;82;21260;-81
2021/05/22 05:00:23;;;;;;;3.85;1.20;;;;;;;12.39;74.36;95714.31;1716803;81;20935;-81
2021/05/22 05:02:51;;;;;;;1.95;1.10;;;;;;;12.35;74.39;95715.71;1712197;82;20967;-81
2021/05/22 05:05:17;;;;;;;1.95;1.10;;;;;;;12.36;74.33;95721.22;1732823;81;21077;-81
2021/05/22 05:07:43;;;;;;;2.62;1.40;;;;;;;12.37;74.30;95723.34;1739909;82;21307;-81
2021/05/22 05:10:10;;;;;;;2.55;1.00;;;;;;;12.44;74.41;95733.22;1739480;81;21027;-81
2021/05/22 05:12:36;;;;;;;4.47;1.40;;;;;;;12.52;74.70;95735.05;1718548;81;21409;-81
2021/05/22 05:15:02;;;;;;;5.22;1.20;;;;;;;12.63;74.81;95730.48;1709625;81;20959;-81
2021/05/22 05:17:28;;;;;;;2.33;1.25;;;;;;;12.73;74.71;95720.12;1712232;81;20951;-81
2021/05/22 05:19:54;;;;;;;1.75;1.00;;;;;;;12.80;74.66;95723.47;1729790;81;21268;-81
2021/05/22 05:22:19;;;;;;;4.55;1.10;;;;;;;12.95;74.75;95716.14;1696499;81;20935;-81
2021/05/22 05:24:45;;;;;;;2.20;1.12;;;;;;;13.10;75.52;95716.63;1729422;82;21033;-81
2021/05/22 05:27:12;;;;;;;1.80;1.10;;;;;;;13.23;75.47;95707.12;1711612;81;21304;-81
2021/05/22 05:29:40;;;;;;;2.20;0.95;;;;;;;13.28;74.99;95707.27;1692656;82;21026;-81
2021/05/22 05:32:08;;;;;;;1.72;1.10;;;;;;;13.38;75.24;95721.94;1728061;82;21014;-81
2021/05/22 05:34:34;;;;;;;1.87;1.10;;;;;;;13.41;75.09;95724.12;1714888;81;20967;-82
2021/05/22 05:37:00;;;;;;;2.47;0.98;;;;;;;13.43;74.92;95729.41;1723691;81;20962;-81
2021/05/22 05:39:25;;;;;;;2.47;1.30;;;;;;;13.44;74.85;95730.20;1740382;81;20967;-81
2021/05/22 05:41:51;;;;;;;2.15;1.10;;;;;;;13.39;75.17;95733.98;1721854;80;21006;-81
2021/05/22 05:44:17;;;;;;;3.90;1.47;;;;;;;13.46;75.06;95737.31;1740657;80;20966;-81
2021/05/22 05:46:43;;;;;;;3.05;1.85;;;;;;;13.56;75.17;95743.35;1751998;80;21247;-81
2021/05/22 05:49:08;;;;;;;5.67;3.55;;;;;;;13.66;75.17;95736.61;1736298;82;20990;-82
2021/05/22 05:51:35;;;;;;;5.87;3.55;;;;;;;13.80;74.65;95733.36;1753933;80;20951;-81
2021/05/22 05:54:00;;;;;;;3.25;2.52;;;;;;;13.89;74.08;95745.12;1727004;82;21013;-81
2021/05/22 05:56:27;;;;;;;2.83;2.27;;;;;;;13.90;73.46;95740.19;1725138;82;21029;-81
2021/05/22 05:58:53;;;;;;;6.05;4.37;;;;;;;13.95;74.25;95731.18;1745785;80;21086;-81
2021/05/22 06:01:19;;;;;;;7.70;6.42;;;;;;;14.05;74.02;95737.20;1725650;80;21391;-81
2021/05/22 06:03:45;;;;;;;8.00;6.65;;;;;;;14.12;73.02;95742.63;1742445;82;21273;-81
2021/05/22 06:06:11;;;;;;;6.97;6.00;;;;;;;14.24;72.85;95736.17;1728926;80;21038;-82
2021/05/22 06:08:37;;;;;;;8.13;5.92;;;;;;;14.31;72.10;95743.91;1725026;80;21014;-82
2021/05/22 06:11:03;;;;;;;7.62;5.50;;;;;;;14.30;71.18;95743.13;1729201;82;20978;-81
2021/05/22 06:13:31;;;;;;;6.87;5.15;;;;;;;14.23;71.34;95743.72;1729105;80;20994;-81
2021/05/22 06:16:12;;;;;;;7.00;5.30;;;;;;;14.23;71.55;95741.63;1740859;80;20982;-81
2021/05/22 06:18:30;;;;;;;8.63;4.78;;;;;;;14.22;71.88;95740.03;1723944;80;20958;-82
2021/05/22 06:20:57;;;;;;;5.15;3.40;;;;;;;14.25;72.31;95744.80;1726633;80;20970;-81
2021/05/22 06:23:23;;;;;;;6.75;4.20;;;;;;;14.37;71.01;95753.00;1725062;82;21248;-82
2021/05/22 06:25:50;;;;;;;7.50;4.72;;;;;;;14.46;70.89;95748.79;1701028;80;21013;-81
2021/05/22 06:28:16;;;;;;;6.97;4.20;;;;;;;14.55;70.67;95748.27;1735077;82;20981;-81
2021/05/22 06:30:42;;;;;;;6.10;3.40;;;;;;;14.64;70.93;95753.97;1735206;80;21038;-82
2021/05/22 06:33:08;;;;;;;5.80;3.27;;;;;;;14.64;70.12;95763.13;1725070;80;21029;-82
2021/05/22 06:35:34;;;;;;;3.65;2.33;;;;;;;14.60;69.22;95764.59;1725432;82;21025;-81
2021/05/22 06:37:59;;;;;;;5.12;3.05;;;;;;;14.54;68.48;95765.48;1698374;80;21291;-82
2021/05/22 06:40:25;;;;;;;4.42;2.70;;;;;;;14.45;68.40;95768.11;1725111;82;21072;-82
2021/05/22 06:42:51;;;;;;;5.97;3.67;;;;;;;14.40;68.25;95764.31;1725089;80;21050;-82
2021/05/22 06:45:17;;;;;;;5.53;3.47;;;;;;;14.39;69.39;95767.95;1725742;82;21342;-82
2021/05/22 06:47:44;;;;;;;4.37;2.50;;;;;;;14.41;70.09;95767.73;1725806;80;21089;-81
2021/05/22 06:50:10;;;;;;;4.05;2.33;;;;;;;14.44;70.34;95767.31;1728962;80;21061;-81
2021/05/22 06:52:36;;;;;;;3.55;1.92;;;;;;;14.51;69.24;95765.42;1754079;80;20970;-81
2021/05/22 06:55:02;;;;;;;2.60;1.72;;;;;;;14.56;68.45;95758.22;1735121;82;21015;-81
2021/05/22 06:57:28;;;;;;;4.78;2.20;;;;;;;14.64;67.75;95758.72;1728484;80;21259;-81
2021/05/22 06:59:53;;;;;;;3.85;1.87;;;;;;;14.74;67.08;95743.78;1725073;80;20943;-82
2021/05/22 07:02:19;;;;;;;3.20;1.50;;;;;;;14.87;66.15;95743.59;1726566;80;20958;-82
2021/05/22 07:04:45;;;;;;;2.42;1.77;;;;;;;15.01;65.99;95734.53;1745515;80;21291;-81
2021/05/22 07:07:11;;;;;;;2.12;1.20;;;;;;;15.13;65.98;95735.05;1740819;82;20954;-81
2021/05/22 07:09:36;;;;;;;3.67;1.25;;;;;;;15.21;65.54;95730.80;1732558;80;20994;-83
2021/05/22 07:12:03;;;;;;;1.90;1.35;;;;;;;15.22;64.94;95729.78;1726223;80;21295;-82
2021/05/22 07:14:31;;;;;;;2.83;1.17;;;;;;;15.24;64.63;95747.36;1726119;80;21026;-82
2021/05/22 07:16:58;;;;;;;2.58;1.15;;;;;;;15.25;64.28;95745.03;1746142;80;21270;-83
2021/05/22 07:19:26;;;;;;;2.17;1.02;;;;;;;15.31;64.12;95744.14;1727168;82;21013;-83
2021/05/22 07:21:51;;;;;;;3.37;1.40;;;;;;;15.40;63.23;95733.60;1724996;82;21045;-83
2021/05/22 07:24:19;;;;;;;2.27;1.17;;;;;;;15.55;63.89;95723.98;1732802;80;21026;-83
2021/05/22 07:26:45;;;;;;;2.08;1.32;;;;;;;15.69;62.95;95735.05;1753754;80;21065;-83
2021/05/22 07:29:11;;;;;;;2.33;1.10;;;;;;;15.76;62.23;95739.14;1734392;80;21033;-83
2021/05/22 07:31:40;;;;;;;2.27;0.90;;;;;;;15.84;61.68;95741.42;1745820;80;21988;-83
2021/05/22 07:34:05;;;;;;;5.47;1.05;;;;;;;15.92;61.01;95740.25;1740230;80;21443;-83
2021/05/22 07:36:31;;;;;;;1.75;1.20;;;;;;;15.91;60.63;95740.77;1705416;82;20995;-83
2021/05/22 07:38:57;;;;;;;1.77;1.07;;;;;;;15.90;60.02;95738.38;1743437;80;20977;-83
2021/05/22 07:41:22;;;;;;;1.85;0.80;;;;;;;15.82;59.07;95738.75;1725001;80;21391;-83
2021/05/22 07:43:48;;;;;;;2.40;1.17;;;;;;;15.71;58.50;95729.87;1746237;80;20961;-83
2021/05/22 07:46:14;;;;;;;1.62;0.98;;;;;;;15.61;59.40;95738.29;1726585;82;20994;-83
2021/05/22 07:48:39;;;;;;;3.35;1.02;;;;;;;15.50;58.99;95737.77;1727270;82;20946;-83
2021/05/22 07:51:05;;;;;;;3.58;1.52;;;;;;;15.40;59.04;95738.84;1732066;80;21311;-83
2021/05/22 07:53:31;;;;;;;3.55;1.55;;;;;;;15.31;59.93;95727.13;1740161;80;20985;-83
2021/05/22 07:55:56;;;;;;;2.60;1.12;;;;;;;15.21;59.20;95731.60;1725706;80;21014;-83
2021/05/22 07:58:23;;;;;;;1.52;0.80;;;;;;;15.14;60.09;95723.59;1725428;80;21013;-83
2021/05/22 08:00:49;;;;;;;3.17;1.10;;;;;;;15.04;59.85;95731.18;1725327;80;21331;-83
2021/05/22 08:03:14;;;;;;;1.50;1.05;;;;;;;14.93;59.83;95727.00;1726888;80;21010;-83
2021/05/22 08:05:40;;;;;;;2.45;1.05;;;;;;;14.84;60.05;95729.67;1741184;82;21022;-83
2021/05/22 08:08:06;;;;;;;2.08;1.00;;;;;;;14.74;59.91;95741.68;1699050;80;21367;-83
2021/05/22 08:10:32;;;;;;;3.47;1.40;;;;;;;14.65;60.74;95734.17;1735711;82;21022;-83
2021/05/22 08:12:57;;;;;;;1.35;1.05;;;;;;;14.55;60.08;95728.66;1735910;82;21302;-83
2021/05/22 08:15:23;;;;;;;1.85;1.02;;;;;;;14.50;60.40;95728.54;1727991;80;20960;-83
2021/05/22 08:17:49;;;;;;;1.77;1.17;;;;;;;14.45;60.44;95732.82;1725271;82;20990;-83
2021/05/22 08:20:15;;;;;;;2.30;1.30;;;;;;;14.38;60.45;95737.61;1726611;82;20969;-83
2021/05/22 08:22:41;;;;;;;2.55;1.20;;;;;;;14.30;60.72;95736.59;1727393;82;20950;-83
2021/05/22 08:25:08;;;;;;;2.62;1.32;;;;;;;14.24;61.36;95744.52;1727843;80;20989;-83
2021/05/22 08:27:34;;;;;;;10.93;8.23;;;;;;;14.17;61.67;95751.14;1726755;80;21302;-83
2021/05/22 08:30:00;;;;;;;8.05;6.40;;;;;;;14.11;62.00;95757.22;1738484;82;20954;-83
2021/05/22 08:32:26;;;;;;;5.17;3.80;;;;;;;14.03;62.32;95756.23;1733093;80;21013;-83
2021/05/22 08:34:52;;;;;;;3.22;2.90;;;;;;;13.97;62.91;95756.57;1725946;80;20986;-83
2021/05/22 08:37:20;;;;;;;4.08;3.00;;;;;;;13.96;63.64;95758.89;1725922;80;20965;-83
2021/05/22 08:39:45;;;;;;;2.90;1.62;;;;;;;13.93;63.69;95767.67;1726011;80;21010;-83
2021/05/22 08:42:15;;;;;;;1.98;1.37;;;;;;;13.88;63.73;95774.86;1712846;82;21007;-83
2021/05/22 08:44:42;;;;;;;1.82;1.40;;;;;;;13.87;63.92;95772.47;1729748;81;21011;-83
2021/05/22 08:47:09;;;;;;;3.42;1.95;;;;;;;13.81;64.05;95778.83;1711602;81;20967;-83
2021/05/22 08:49:42;;;;;;;13.10;8.50;;;;;;;13.75;64.58;95789.35;1711576;81;21002;-83
2021/05/22 08:52:17;;;;;;;7.53;4.92;;;;;;;13.68;65.64;95804.30;1712028;81;21288;-83
2021/05/22 08:54:44;;;;;;;8.03;7.05;;;;;;;13.57;66.39;95802.37;1664918;84;21290;-83
2021/05/22 08:57:10;;;;;;;12.70;11.50;;;;;;;13.45;67.01;95798.34;1680691;83;21105;-82
2021/05/22 08:59:42;;;;;;;7.37;5.67;;;;;;;13.35;67.61;95812.39;1675580;83;21097;-83
2021/05/22 09:02:14;;;;;;;3.87;3.02;;;;;;;13.29;68.03;95814.02;1673657;83;20979;-83
2021/05/22 09:05:11;;;;;;;3.27;2.72;;;;;;;13.26;68.60;95824.09;1665963;83;21042;-83
2021/05/22 09:07:43;;;;;;;4.62;3.52;;;;;;;13.19;69.85;95828.86;1714067;81;20971;-83
2021/05/22 09:10:17;;;;;;;5.55;3.45;;;;;;;13.02;69.73;95829.55;1733868;82;21035;-83
2021/05/22 09:12:45;;;;;;;4.15;3.25;;;;;;;12.90;70.51;95831.52;1724771;81;21039;-82
2021/05/22 09:15:19;;;;;;;3.52;3.22;;;;;;;12.85;71.14;95841.77;1730630;81;21058;-83
2021/05/22 09:17:49;;;;;;;5.25;4.05;;;;;;;12.80;71.29;95842.88;1711422;82;21074;-82
2021/05/22 09:20:34;;;;;;;11.20;9.68;;;;;;;12.76;71.74;95843.02;1711247;81;21042;-82
2021/05/22 09:23:05;;;;;;;8.03;6.78;;;;;;;12.73;72.14;95850.45;1711803;82;20958;-82
2021/05/22 09:25:35;;;;;;;5.28;4.33;;;;;;;12.70;72.51;95856.09;1714653;81;21264;-82
2021/05/22 09:28:03;;;;;;;13.58;12.28;;;;;;;12.54;73.38;95856.84;1711814;81;20983;-82
2021/05/22 09:30:28;;;;;;;27.70;25.10;;;;;;;12.46;73.78;95863.58;1712360;81;21303;-82
2021/05/22 09:32:54;;;;;;;21.25;19.25;;;;;;;12.40;73.69;95865.72;1712422;81;20969;-82
2021/05/22 09:35:21;;;;;;;11.28;10.15;;;;;;;12.40;74.06;95869.63;1712233;81;21034;-82
2021/05/22 09:37:59;;;;;;;11.33;10.30;;;;;;;12.38;74.45;95867.73;1713062;81;21050;-82
2021/05/22 09:40:28;;;;;;;6.67;5.50;;;;;;;12.30;74.67;95865.33;1712409;81;21272;-81
2021/05/22 09:42:54;;;;;;;5.50;5.00;;;;;;;12.28;75.26;95869.95;1721611;81;21014;-82
2021/05/22 09:45:35;;;;;;;7.42;5.78;;;;;;;12.27;75.67;95874.86;1746181;80;20955;-82
2021/05/22 09:48:12;;;;;;;4.45;3.90;;;;;;;12.24;75.34;95870.87;1701640;82;21256;-82
2021/05/22 09:50:46;;;;;;;5.85;4.08;;;;;;;12.26;75.86;95870.66;1733249;82;21006;-82
2021/05/22 09:53:36;;;;;;;4.47;2.30;;;;;;;12.19;75.63;95869.86;1737126;80;20987;-81
2021/05/22 09:56:24;;;;;;;2.65;2.27;;;;;;;12.12;75.52;95871.19;1735071;80;21005;-82
2021/05/22 09:58:56;;;;;;;2.95;2.15;;;;;;;12.00;75.30;95874.91;1731859;80;21271;-82
2021/05/22 10:01:30;;;;;;;3.75;3.00;;;;;;;11.89;75.48;95872.94;1726520;82;21081;-82
2021/05/22 10:04:16;;;;;;;3.95;3.55;;;;;;;11.84;75.76;95874.52;1726050;80;21062;-82
2021/05/22 10:06:42;;;;;;;8.95;7.80;;;;;;;11.79;76.58;95871.73;1725369;80;20962;-82
2021/05/22 10:09:15;;;;;;;11.33;9.40;;;;;;;11.72;76.16;95868.61;1726347;82;20934;-82
2021/05/22 10:12:06;;;;;;;7.78;6.60;;;;;;;11.70;76.60;95871.89;1746462;80;20950;-82
2021/05/22 10:14:40;;;;;;;5.07;4.57;;;;;;;11.69;76.72;95875.49;1727734;82;21033;-82
2021/05/22 10:17:08;;;;;;;7.67;6.30;;;;;;;11.68;77.04;95876.50;1733885;80;21255;-82
2021/05/22 10:19:35;;;;;;;6.28;5.45;;;;;;;11.66;77.15;95877.20;1754521;82;20966;-82
2021/05/22 10:22:02;;;;;;;9.10;8.15;;;;;;;11.72;77.16;95889.94;1750417;80;20988;-83
2021/05/22 10:24:28;;;;;;;4.60;4.20;;;;;;;11.79;77.47;95880.34;1736257;80;20986;-82
2021/05/22 10:26:54;;;;;;;12.13;10.95;;;;;;;11.87;77.65;95884.02;1733214;80;21018;-82
2021/05/22 10:29:21;;;;;;;4.05;3.45;;;;;;;11.95;78.12;95890.34;1746361;80;20982;-82
2021/05/22 10:31:48;;;;;;;9.38;8.43;;;;;;;11.98;77.55;95883.42;1725803;80;20954;-83
2021/05/22 10:34:17;;;;;;;5.30;3.40;;;;;;;12.01;77.92;95888.72;1725810;82;21017;-82
2021/05/22 10:36:57;;;;;;;5.50;4.40;;;;;;;11.96;77.82;95882.03;1725735;80;21243;-82
2021/05/22 10:39:41;;;;;;;5.12;4.62;;;;;;;11.97;78.04;95883.63;1726520;80;21310;-82
2021/05/22 10:42:25;;;;;;;4.08;3.02;;;;;;;12.05;78.14;95891.74;1726679;82;21075;-82
2021/05/22 10:44:51;;;;;;;4.17;3.77;;;;;;;12.18;78.28;95885.19;1732855;81;21390;-82
2021/05/22 10:47:18;;;;;;;4.45;4.05;;;;;;;12.25;78.11;95892.50;1732974;80;20957;-82
2021/05/22 10:50:05;;;;;;;3.08;2.50;;;;;;;12.23;78.97;95907.03;1706061;81;21270;-82
2021/05/22 10:52:34;;;;;;;3.02;1.92;;;;;;;12.10;77.99;95908.86;1735231;80;20938;-83
2021/05/22 10:55:10;;;;;;;2.55;2.27;;;;;;;12.04;78.29;95909.17;1747778;80;20962;-82
2021/05/22 10:57:57;;;;;;;2.90;2.12;;;;;;;12.05;78.28;95905.56;1734703;80;21077;-82
2021/05/22 11:00:24;;;;;;;3.40;2.47;;;;;;;12.15;79.34;95909.84;1749663;80;21090;-82
2021/05/22 11:02:54;;;;;;;4.47;3.05;;;;;;;12.16;78.44;95902.83;1762064;80;21037;-82
2021/05/22 11:05:29;;;;;;;3.55;3.08;;;;;;;12.18;78.89;95916.44;1753855;80;21061;-82
2021/05/22 11:08:13;;;;;;;3.72;2.25;;;;;;;12.21;78.74;95917.36;1758664;81;20954;-83
2021/05/22 11:10:48;;;;;;;24.18;12.40;;;;;;;12.26;78.32;95927.97;1748044;81;21005;-82
2021/05/22 11:13:24;;;;;;;28.52;15.80;;;;;;;12.19;78.10;95927.16;1740074;80;21050;-82
2021/05/22 11:15:55;;;;;;;13.53;10.08;;;;;;;12.12;78.24;95932.89;1744668;80;20938;-82
2021/05/22 11:18:38;;;;;;;7.28;5.45;;;;;;;12.08;77.68;95944.72;1739403;80;21235;-82
2021/05/22 11:21:19;;;;;;;6.35;4.28;;;;;;;12.08;77.83;95944.22;1736246;80;21016;-82
2021/05/22 11:24:01;;;;;;;14.67;12.83;;;;;;;12.02;78.00;95941.09;1753579;80;20958;-82
2021/05/22 11:26:58;;;;;;;8.75;7.85;;;;;;;11.98;78.65;95942.00;1751999;80;21995;-82
2021/05/22 11:29:52;;;;;;;12.82;8.88;;;;;;;11.99;78.41;95937.59;1757584;81;20993;-82
2021/05/22 11:32:51;;;;;;;6.40;4.05;;;;;;;12.05;78.36;95944.63;1759897;80;20998;-83
2021/05/22 11:35:34;;;;;;;7.67;5.58;;;;;;;11.99;78.35;95941.00;1741452;81;20985;-82
2021/05/22 11:38:21;;;;;;;3.02;2.25;;;;;;;11.98;78.76;95940.70;1760954;81;20926;-82